createdAt,value
2022-09-11T00:00:35.014Z,2.40
2022-09-11T00:03:04.583Z,2.15
2022-09-11T00:05:34.569Z,2.70
2022-09-11T00:08:03.566Z,2.25
2022-09-11T00:10:36.611Z,2.30
2022-09-11T00:13:10.654Z,2.38
2022-09-11T00:15:47.570Z,2.83
2022-09-11T00:18:23.154Z,2.63
2022-09-11T00:20:52.553Z,2.35
2022-09-11T00:23:27.765Z,2.50
2022-09-11T00:25:57.133Z,2.50
2022-09-11T00:28:36.057Z,2.40
2022-09-11T00:31:08.147Z,2.60
2022-09-11T00:33:40.524Z,2.42
2022-09-11T00:36:24.303Z,2.55
2022-09-11T00:38:54.629Z,2.35
2022-09-11T00:41:29.323Z,2.30
2022-09-11T00:44:03.811Z,2.38
2022-09-11T00:46:48.695Z,2.60
2022-09-11T00:49:33.438Z,2.40
2022-09-11T00:52:25.057Z,2.22
2022-09-11T00:55:16.583Z,2.40
2022-09-11T00:57:51.095Z,2.25
2022-09-11T01:00:20.540Z,2.20
2022-09-11T01:02:50.522Z,2.30
2022-09-11T01:05:20.165Z,2.50
2022-09-11T01:07:51.064Z,2.45
2022-09-11T01:10:20.756Z,2.30
2022-09-11T01:12:55.086Z,2.60
2022-09-11T01:16:04.635Z,2.35
2022-09-11T01:18:46.249Z,2.53
2022-09-11T01:21:27.911Z,2.25
2022-09-11T01:24:18.875Z,2.42
2022-09-11T01:27:14.579Z,2.50
2022-09-11T01:29:46.000Z,2.25
2022-09-11T01:32:35.514Z,2.10
2022-09-11T01:35:09.249Z,2.25
2022-09-11T01:38:24.965Z,2.40
2022-09-11T01:40:57.284Z,2.45
2022-09-11T01:43:35.930Z,2.47
2022-09-11T01:46:09.170Z,2.30
2022-09-11T01:48:45.642Z,2.35
2022-09-11T01:51:18.746Z,2.38
2022-09-11T01:53:52.681Z,2.40
2022-09-11T01:56:28.622Z,2.40
2022-09-11T01:59:05.331Z,2.35
2022-09-11T02:01:41.434Z,2.28
2022-09-11T02:04:15.511Z,2.47
2022-09-11T02:06:48.525Z,2.50
2022-09-11T02:09:20.593Z,2.58
2022-09-11T02:11:53.069Z,2.60
2022-09-11T02:14:42.655Z,2.38
2022-09-11T02:17:30.032Z,2.63
2022-09-11T02:20:01.584Z,2.60
2022-09-11T02:22:33.402Z,2.55
2022-09-11T02:25:04.040Z,2.60
2022-09-11T02:27:36.040Z,2.60
2022-09-11T02:30:05.923Z,2.50
2022-09-11T02:32:38.866Z,2.47
2022-09-11T02:35:08.462Z,2.60
2022-09-11T02:38:08.724Z,2.40
2022-09-11T02:40:47.070Z,2.30
2022-09-11T02:43:44.531Z,2.40
2022-09-11T02:46:52.448Z,2.38
2022-09-11T02:49:28.075Z,2.35
2022-09-11T02:52:03.617Z,2.70
2022-09-11T02:54:32.495Z,2.47
2022-09-11T02:57:12.729Z,2.42
2022-09-11T03:00:02.671Z,2.38
2022-09-11T03:02:39.987Z,2.30
2022-09-11T03:05:12.871Z,2.35
2022-09-11T03:07:44.927Z,2.08
2022-09-11T03:10:17.010Z,2.38
2022-09-11T03:12:47.219Z,2.45
2022-09-11T03:15:18.472Z,2.35
2022-09-11T03:17:48.908Z,2.60
2022-09-11T03:20:25.290Z,2.65
2022-09-11T03:22:57.331Z,2.50
2022-09-11T03:25:28.821Z,2.50
2022-09-11T03:28:00.742Z,2.72
2022-09-11T03:30:30.996Z,2.65
2022-09-11T03:33:01.684Z,2.47
2022-09-11T03:35:30.947Z,2.45
2022-09-11T03:38:00.706Z,2.50
2022-09-11T03:40:30.423Z,2.80
2022-09-11T03:43:00.252Z,2.33
2022-09-11T03:45:30.813Z,2.47
2022-09-11T03:47:59.765Z,2.35
2022-09-11T03:50:28.711Z,2.72
2022-09-11T03:52:58.946Z,2.70
2022-09-11T03:55:29.842Z,2.50
2022-09-11T03:58:02.172Z,2.42
2022-09-11T04:00:33.248Z,2.70
2022-09-11T04:03:03.005Z,2.67
2022-09-11T04:05:40.782Z,2.50
2022-09-11T04:10:46.874Z,2.42
2022-09-11T04:13:17.293Z,2.45
2022-09-11T04:15:48.784Z,2.50
2022-09-11T04:18:19.446Z,2.67
2022-09-11T04:20:49.331Z,2.60
2022-09-11T04:23:21.057Z,2.50
2022-09-11T04:25:51.920Z,2.78
2022-09-11T04:28:23.516Z,2.83
2022-09-11T04:30:53.420Z,2.63
2022-09-11T04:33:26.780Z,2.67
2022-09-11T04:35:55.650Z,2.60
2022-09-11T04:38:25.409Z,2.63
2022-09-11T04:40:56.111Z,2.72
2022-09-11T04:43:32.117Z,2.83
2022-09-11T04:46:09.284Z,2.65
2022-09-11T04:48:50.232Z,2.72
2022-09-11T04:51:24.882Z,2.80
2022-09-11T04:53:59.209Z,2.83
2022-09-11T04:56:43.904Z,2.53
2022-09-11T04:59:20.350Z,2.90
2022-09-11T05:02:02.940Z,2.67
2022-09-11T05:04:32.708Z,2.75
2022-09-11T05:07:04.224Z,3.00
2022-09-11T05:09:33.462Z,2.80
2022-09-11T05:12:04.097Z,2.60
2022-09-11T05:14:36.555Z,2.60
2022-09-11T05:17:06.974Z,2.70
2022-09-11T05:19:41.756Z,2.42
2022-09-11T05:22:12.245Z,2.40
2022-09-11T05:24:46.688Z,2.47
2022-09-11T05:27:15.330Z,2.70
2022-09-11T05:29:45.217Z,2.70
2022-09-11T05:32:16.690Z,2.50
2022-09-11T05:34:46.999Z,2.90
2022-09-11T05:37:18.719Z,2.47
2022-09-11T05:39:51.175Z,2.50
2022-09-11T05:42:22.946Z,2.50
2022-09-11T05:44:56.741Z,2.40
2022-09-11T05:47:29.053Z,2.60
2022-09-11T05:50:00.687Z,2.42
2022-09-11T05:52:32.193Z,2.70
2022-09-11T05:55:02.808Z,2.67
2022-09-11T05:57:33.278Z,2.45
2022-09-11T06:00:05.160Z,2.50
2022-09-11T06:02:46.679Z,2.53
2022-09-11T06:05:16.163Z,2.72
2022-09-11T06:07:45.236Z,2.60
2022-09-11T06:10:15.623Z,2.80
2022-09-11T06:12:44.899Z,2.90
2022-09-11T06:15:36.278Z,3.00
2022-09-11T06:18:08.254Z,2.58
2022-09-11T06:20:38.105Z,2.60
2022-09-11T06:23:14.942Z,2.75
2022-09-11T06:25:44.819Z,3.00
2022-09-11T06:28:16.709Z,2.80
2022-09-11T06:30:56.532Z,2.60
2022-09-11T06:33:29.292Z,2.67
2022-09-11T06:36:25.261Z,2.53
2022-09-11T06:39:23.406Z,2.50
2022-09-11T06:41:59.925Z,2.63
2022-09-11T06:44:35.977Z,2.80
2022-09-11T06:47:07.680Z,2.78
2022-09-11T06:49:47.603Z,2.58
2022-09-11T06:52:34.958Z,2.42
2022-09-11T06:55:19.241Z,2.55
2022-09-11T06:58:01.305Z,2.90
2022-09-11T07:00:47.312Z,2.65
2022-09-11T07:03:17.518Z,2.73
2022-09-11T07:05:52.711Z,2.80
2022-09-11T07:08:24.953Z,2.70
2022-09-11T07:10:56.904Z,2.58
2022-09-11T07:13:34.324Z,2.70
2022-09-11T07:16:12.506Z,2.70
2022-09-11T07:18:48.389Z,2.47
2022-09-11T07:21:24.578Z,2.65
2022-09-11T07:24:04.411Z,2.83
2022-09-11T07:26:47.843Z,2.50
2022-09-11T07:29:26.333Z,2.50
2022-09-11T07:31:58.823Z,2.75
2022-09-11T07:34:32.627Z,2.65
2022-09-11T07:37:07.250Z,2.78
2022-09-11T07:39:44.412Z,2.88
2022-09-11T07:42:20.558Z,2.55
2022-09-11T07:44:52.803Z,2.70
2022-09-11T07:47:27.485Z,2.63
2022-09-11T07:49:57.506Z,2.53
2022-09-11T07:52:29.283Z,2.63
2022-09-11T07:55:04.943Z,2.55
2022-09-11T07:57:37.251Z,2.97
2022-09-11T08:00:17.153Z,2.78
2022-09-11T08:03:05.078Z,2.80
2022-09-11T08:05:37.564Z,2.65
2022-09-11T08:08:08.344Z,2.65
2022-09-11T08:10:43.823Z,2.72
2022-09-11T08:13:15.722Z,2.70
2022-09-11T08:15:50.837Z,2.60
2022-09-11T08:18:24.781Z,2.58
2022-09-11T08:20:56.483Z,2.65
2022-09-11T08:23:27.009Z,2.63
2022-09-11T08:26:14.004Z,2.67
2022-09-11T08:28:47.611Z,2.50
2022-09-11T08:31:29.026Z,2.70
2022-09-11T08:34:13.224Z,2.50
2022-09-11T08:36:56.119Z,2.60
2022-09-11T08:39:34.086Z,2.53
2022-09-11T08:42:14.927Z,2.80
2022-09-11T08:44:49.891Z,2.50
2022-09-11T08:47:34.077Z,2.90
2022-09-11T08:50:12.293Z,2.50
2022-09-11T08:52:45.186Z,2.33
2022-09-11T08:55:25.029Z,2.55
2022-09-11T08:58:05.414Z,2.47
2022-09-11T09:00:44.473Z,2.80
2022-09-11T09:03:47.418Z,2.67
2022-09-11T09:06:26.906Z,2.50
2022-09-11T09:09:09.326Z,2.60
2022-09-11T09:12:03.789Z,2.70
2022-09-11T09:14:45.136Z,2.75
2022-09-11T09:17:20.924Z,2.53
2022-09-11T09:20:17.465Z,2.53
2022-09-11T09:22:51.168Z,2.63
2022-09-11T09:25:35.184Z,2.50
2022-09-11T09:28:32.105Z,2.50
2022-09-11T09:31:17.386Z,2.35
2022-09-11T09:34:03.710Z,2.58
2022-09-11T09:36:48.890Z,2.45
2022-09-11T09:39:24.684Z,2.65
2022-09-11T09:42:27.071Z,2.60
2022-09-11T09:45:12.837Z,2.83
2022-09-11T09:47:49.626Z,2.50
2022-09-11T09:50:23.236Z,2.78
2022-09-11T09:52:56.983Z,2.50
2022-09-11T09:55:30.964Z,2.97
2022-09-11T09:58:00.795Z,2.80
2022-09-11T10:00:37.226Z,3.10
2022-09-11T10:03:25.603Z,2.70
2022-09-11T10:06:00.670Z,2.70
2022-09-11T10:11:06.730Z,2.38
2022-09-11T10:13:54.702Z,2.78
2022-09-11T10:16:27.192Z,2.47
2022-09-11T10:18:57.364Z,2.80
2022-09-11T10:21:30.982Z,2.80
2022-09-11T10:24:01.246Z,2.33
2022-09-11T10:26:57.639Z,2.40
2022-09-11T10:29:31.017Z,2.50
2022-09-11T10:32:07.394Z,2.60
2022-09-11T10:34:39.095Z,2.47
2022-09-11T10:37:13.844Z,2.53
2022-09-11T10:39:48.458Z,2.60
2022-09-11T10:42:24.248Z,2.72
2022-09-11T10:44:57.125Z,2.60
2022-09-11T10:47:32.317Z,2.65
2022-09-11T10:52:35.311Z,2.50
2022-09-11T10:55:17.272Z,2.38
2022-09-11T10:57:49.228Z,2.90
2022-09-11T11:00:31.633Z,2.53
2022-09-11T11:03:12.329Z,2.58
2022-09-11T11:06:00.522Z,2.38
2022-09-11T11:08:58.695Z,2.58
2022-09-11T11:11:47.564Z,2.22
2022-09-11T11:14:37.401Z,2.40
2022-09-11T11:17:12.828Z,2.28
2022-09-11T11:20:09.288Z,2.22
2022-09-11T11:22:41.636Z,2.47
2022-09-11T11:25:28.458Z,2.63
2022-09-11T11:28:24.753Z,2.33
2022-09-11T11:30:57.627Z,2.35
2022-09-11T11:33:52.540Z,2.17
2022-09-11T11:36:29.508Z,2.55
2022-09-11T11:39:07.214Z,2.47
2022-09-11T11:41:41.814Z,2.20
2022-09-11T11:44:21.327Z,2.65
2022-09-11T11:46:53.091Z,2.35
2022-09-11T11:49:28.877Z,2.42
2022-09-11T11:52:19.905Z,2.30
2022-09-11T11:54:53.059Z,2.45
2022-09-11T11:57:35.239Z,2.40
2022-09-11T12:00:11.156Z,2.40
2022-09-11T12:02:44.939Z,2.45
2022-09-11T12:05:36.863Z,2.50
2022-09-11T12:08:23.447Z,2.45
2022-09-11T12:11:05.322Z,2.38
2022-09-11T12:13:39.935Z,2.60
2022-09-11T12:16:37.527Z,2.58
2022-09-11T12:19:17.664Z,2.28
2022-09-11T12:21:55.106Z,2.35
2022-09-11T12:24:46.052Z,2.65
2022-09-11T12:27:36.826Z,2.15
2022-09-11T12:30:15.325Z,2.33
2022-09-11T12:32:45.469Z,2.10
2022-09-11T12:35:27.168Z,2.40
2022-09-11T12:38:16.769Z,2.00
2022-09-11T12:40:47.787Z,2.20
2022-09-11T12:43:24.798Z,2.17
2022-09-11T12:45:54.015Z,2.15
2022-09-11T12:48:36.014Z,2.22
2022-09-11T12:51:05.414Z,2.10
2022-09-11T12:53:44.994Z,2.10
2022-09-11T12:56:23.284Z,1.75
2022-09-11T12:59:15.986Z,2.13
2022-09-11T13:01:47.546Z,2.00
2022-09-11T13:04:23.911Z,1.88
2022-09-11T13:06:56.553Z,1.80
2022-09-11T13:09:35.415Z,1.77
2022-09-11T13:12:24.968Z,1.88
2022-09-11T13:15:15.673Z,1.55
2022-09-11T13:17:48.729Z,1.70
2022-09-11T13:20:30.627Z,1.70
2022-09-11T13:23:15.343Z,1.77
2022-09-11T13:25:45.675Z,1.60
2022-09-11T13:29:25.528Z,1.83
2022-09-11T13:32:05.067Z,1.90
2022-09-11T13:34:37.023Z,1.85
2022-09-11T13:37:15.629Z,1.67
2022-09-11T13:39:49.561Z,1.30
2022-09-11T13:42:24.839Z,1.63
2022-09-11T13:44:57.033Z,1.92
2022-09-11T13:47:43.283Z,1.90
2022-09-11T13:50:24.976Z,2.00
2022-09-11T13:52:56.796Z,1.90
2022-09-11T13:55:31.077Z,1.80
2022-09-11T13:58:04.968Z,1.85
2022-09-11T14:00:47.266Z,1.70
2022-09-11T14:03:29.764Z,1.80
2022-09-11T14:06:05.305Z,1.52
2022-09-11T14:08:44.997Z,1.70
2022-09-11T14:11:43.526Z,1.60
2022-09-11T14:14:21.394Z,1.65
2022-09-11T14:17:09.357Z,1.42
2022-09-11T14:20:00.866Z,1.60
2022-09-11T14:22:45.502Z,1.38
2022-09-11T14:25:21.850Z,1.70
2022-09-11T14:27:53.826Z,1.48
2022-09-11T14:30:37.124Z,1.65
2022-09-11T14:33:23.965Z,1.70
2022-09-11T14:36:07.638Z,1.40
2022-09-11T14:38:45.292Z,1.20
2022-09-11T14:41:15.795Z,1.45
2022-09-11T14:43:49.695Z,1.50
2022-09-11T14:46:24.738Z,1.20
2022-09-11T14:48:59.735Z,1.40
2022-09-11T14:51:30.655Z,1.40
2022-09-11T14:54:01.215Z,1.38
2022-09-11T14:56:31.999Z,1.40
2022-09-11T14:59:03.854Z,1.60
2022-09-11T15:01:35.414Z,1.52
2022-09-11T15:04:07.263Z,1.27
2022-09-11T15:06:36.640Z,1.60
2022-09-11T15:09:07.564Z,1.35
2022-09-11T15:11:39.486Z,1.20
2022-09-11T15:14:20.673Z,1.52
2022-09-11T15:17:01.271Z,1.48
2022-09-11T15:19:32.472Z,1.17
2022-09-11T15:22:01.475Z,1.20
2022-09-11T15:24:44.977Z,1.35
2022-09-11T15:27:16.985Z,1.30
2022-09-11T15:29:48.709Z,1.38
2022-09-11T15:32:17.832Z,1.40
2022-09-11T15:34:49.588Z,1.05
2022-09-11T15:37:23.412Z,1.25
2022-09-11T15:39:53.797Z,0.93
2022-09-11T15:42:25.865Z,1.17
2022-09-11T15:45:00.866Z,1.30
2022-09-11T15:47:33.370Z,1.00
2022-09-11T15:50:03.935Z,1.23
2022-09-11T15:52:39.120Z,1.23
2022-09-11T15:55:16.106Z,1.00
2022-09-11T15:57:53.614Z,1.00
2022-09-11T16:00:23.426Z,1.00
2022-09-11T16:03:15.649Z,1.23
2022-09-11T16:06:03.176Z,1.17
2022-09-11T16:08:33.161Z,1.30
2022-09-11T16:11:07.902Z,0.98
2022-09-11T16:13:39.892Z,0.85
2022-09-11T16:16:21.708Z,1.30
2022-09-11T16:18:53.567Z,1.23
2022-09-11T16:21:25.636Z,1.02
2022-09-11T16:24:01.804Z,1.13
2022-09-11T16:26:36.904Z,1.08
2022-09-11T16:29:09.186Z,0.90
2022-09-11T16:31:51.590Z,1.30
2022-09-11T16:34:20.782Z,1.35
2022-09-11T16:36:51.448Z,1.40
2022-09-11T16:39:24.856Z,1.52
2022-09-11T16:41:56.323Z,1.60
2022-09-11T16:44:26.102Z,1.15
2022-09-11T16:46:59.255Z,1.50
2022-09-11T16:49:34.310Z,1.80
2022-09-11T16:52:18.374Z,1.75
2022-09-11T16:54:49.836Z,1.70
2022-09-11T16:57:24.267Z,1.50
2022-09-11T16:59:53.098Z,1.63
2022-09-11T17:02:23.770Z,1.90
2022-09-11T17:04:53.734Z,1.73
2022-09-11T17:07:27.479Z,1.67
2022-09-11T17:09:57.022Z,1.90
2022-09-11T17:12:27.638Z,1.75
2022-09-11T17:14:57.550Z,1.70
2022-09-11T17:17:27.075Z,1.80
2022-09-11T17:19:56.970Z,1.90
2022-09-11T17:22:27.459Z,1.67
2022-09-11T17:24:56.931Z,2.10
2022-09-11T17:27:27.503Z,1.70
2022-09-11T17:30:00.947Z,1.67
2022-09-11T17:32:32.408Z,1.83
2022-09-11T17:35:04.215Z,1.88
2022-09-11T17:37:36.705Z,1.70
2022-09-11T17:40:07.188Z,1.95
2022-09-11T17:42:45.231Z,1.88
2022-09-11T17:45:19.705Z,1.85
2022-09-11T17:47:53.264Z,2.00
2022-09-11T17:50:29.696Z,1.58
2022-09-11T17:53:03.825Z,1.60
2022-09-11T17:55:33.973Z,1.88
2022-09-11T17:58:07.455Z,1.77
2022-09-11T18:00:36.845Z,1.88
2022-09-11T18:06:54.614Z,1.77
2022-09-11T18:13:36.452Z,1.70
2022-09-11T18:16:11.293Z,1.88
2022-09-11T18:18:41.979Z,2.05
2022-09-11T18:21:12.369Z,1.92
2022-09-11T18:23:45.817Z,1.60
2022-09-11T18:26:23.273Z,2.00
2022-09-11T18:29:04.405Z,1.92
2022-09-11T18:31:44.797Z,2.10
2022-09-11T18:34:16.740Z,1.77
2022-09-11T18:36:45.772Z,1.75
2022-09-11T18:39:42.697Z,1.80
2022-09-11T18:42:59.939Z,2.10
2022-09-11T18:45:50.283Z,1.80
2022-09-11T18:49:26.732Z,1.92
2022-09-11T18:52:00.428Z,2.00
2022-09-11T18:54:37.617Z,1.95
2022-09-11T19:04:48.943Z,1.95
2022-09-11T19:07:42.027Z,1.98
2022-09-11T19:10:33.892Z,1.95
2022-09-11T19:13:17.329Z,2.05
2022-09-11T19:16:08.875Z,1.80
2022-09-11T19:18:56.824Z,1.85
2022-09-11T19:21:31.745Z,2.00
2022-09-11T19:24:10.841Z,1.70
2022-09-11T19:27:21.995Z,2.10
2022-09-11T19:30:50.423Z,1.80
2022-09-11T19:33:52.869Z,2.00
2022-09-11T19:36:52.374Z,2.20
2022-09-11T19:39:30.031Z,2.10
2022-09-11T19:42:25.625Z,2.20
2022-09-11T19:45:01.434Z,2.10
2022-09-11T19:47:33.500Z,2.35
2022-09-11T19:50:28.879Z,2.63
2022-09-11T19:53:08.660Z,2.40
2022-09-11T19:55:43.957Z,2.38
2022-09-11T19:58:27.778Z,2.30
2022-09-11T20:01:08.996Z,2.30
2022-09-11T20:03:49.175Z,2.47
2022-09-11T20:06:35.747Z,2.40
2022-09-11T20:14:32.511Z,2.30
2022-09-11T20:17:09.029Z,2.25
2022-09-11T20:19:47.884Z,2.30
2022-09-11T20:22:21.779Z,2.35
2022-09-11T20:24:53.536Z,2.30
2022-09-11T20:27:24.188Z,2.17
2022-09-11T20:29:57.838Z,2.30
2022-09-11T20:32:36.223Z,2.20
2022-09-11T20:35:08.804Z,2.30
2022-09-11T20:38:09.703Z,2.25
2022-09-11T20:41:08.255Z,2.10
2022-09-11T20:43:43.824Z,2.60
2022-09-11T20:46:29.568Z,2.28
2022-09-11T20:52:39.590Z,2.35
2022-09-11T20:55:10.588Z,2.10
2022-09-11T20:58:17.806Z,2.08
2022-09-11T21:00:47.418Z,2.15
2022-09-11T21:03:15.677Z,2.67
2022-09-11T21:05:45.743Z,2.50
2022-09-11T21:08:15.879Z,2.60
2022-09-11T21:10:46.635Z,2.30
2022-09-11T21:13:15.746Z,2.63
2022-09-11T21:15:49.145Z,2.63
2022-09-11T21:18:19.421Z,2.58
2022-09-11T21:20:55.291Z,2.80
2022-09-11T21:23:25.686Z,3.00
2022-09-11T21:25:57.705Z,2.75
2022-09-11T21:28:36.837Z,2.70
2022-09-11T21:31:37.235Z,2.97
2022-09-11T21:34:07.266Z,3.10
2022-09-11T21:36:37.260Z,2.95
2022-09-11T21:39:09.258Z,2.67
2022-09-11T21:41:39.052Z,3.08
2022-09-11T21:44:07.320Z,2.83
2022-09-11T21:46:37.383Z,3.40
2022-09-11T21:56:22.292Z,3.22
2022-09-11T21:58:55.642Z,2.97
2022-09-11T22:01:37.980Z,2.92
2022-09-11T22:04:09.052Z,2.83
2022-09-11T22:06:39.668Z,3.22
2022-09-11T22:09:09.310Z,3.08
2022-09-11T22:11:37.981Z,3.22
2022-09-11T22:14:07.588Z,3.00
2022-09-11T22:17:23.853Z,3.17
2022-09-11T22:21:08.397Z,3.00
2022-09-11T22:24:57.351Z,3.17
2022-09-11T22:30:47.968Z,2.78
2022-09-11T22:33:33.166Z,3.08
2022-09-11T22:37:20.434Z,3.20
2022-09-11T22:39:51.368Z,2.95
2022-09-11T22:42:30.768Z,2.83
2022-09-11T22:45:04.179Z,2.83
2022-09-11T22:47:42.869Z,3.22
2022-09-11T22:50:20.786Z,3.00
2022-09-11T22:53:01.615Z,3.20
2022-09-11T22:55:40.080Z,3.08
2022-09-11T22:58:31.887Z,3.00
2022-09-11T23:04:33.414Z,3.30
2022-09-11T23:10:36.007Z,3.15
2022-09-11T23:13:05.243Z,3.08
2022-09-11T23:15:35.440Z,3.60
2022-09-11T23:18:17.050Z,3.35
2022-09-11T23:20:47.498Z,3.17
2022-09-11T23:23:17.619Z,3.10
2022-09-11T23:25:48.074Z,3.20
2022-09-11T23:28:18.747Z,3.15
2022-09-11T23:30:49.965Z,3.40
2022-09-11T23:33:20.431Z,3.17
2022-09-11T23:35:50.333Z,3.22
2022-09-11T23:38:20.166Z,3.20
2022-09-11T23:40:49.989Z,3.45
2022-09-11T23:43:25.503Z,3.13
2022-09-11T23:45:59.777Z,3.47
2022-09-11T23:48:32.052Z,3.15
2022-09-11T23:51:02.150Z,3.33
2022-09-11T23:53:49.630Z,3.33
2022-09-11T23:56:41.952Z,3.13
2022-09-11T23:59:50.000Z,3.17
